Time;durP1;ratioP1;P1;durP2;ratioP2;P2;SDS_P1;SDS_P2;PMS_P1;PMS_P2;Temp;Humidity;BMP_temperature;BMP_pressure;BME280_temperature;BME280_humidity;BME280_pressure;Samples;Min_cycle;Max_cycle;Signal;HPM_P1;HPM_P2
2021/05/25 00:00:28;;;;;;;5.77;5.27;;;;;;;;;;4987704;28;20189;-49
2021/05/25 00:02:53;;;;;;;4.57;4.17;;;;;;;;;;4988890;28;20181;-48
2021/05/25 00:05:23;;;;;;;5.07;4.57;;;;;;;;;;4982458;28;20283;-48
2021/05/25 00:07:48;;;;;;;4.83;4.53;;;;;;;;;;4988695;28;20285;-47
2021/05/25 00:10:14;;;;;;;4.37;4.07;;;;;;;;;;4988526;28;20683;-47
2021/05/25 00:12:39;;;;;;;3.80;3.60;;;;;;;;;;4985960;28;20171;-48
2021/05/25 00:15:06;;;;;;;4.20;3.80;;;;;;;;;;4985976;28;20254;-47
2021/05/25 00:17:31;;;;;;;3.90;3.60;;;;;;;;;;4987539;28;20223;-48
2021/05/25 00:19:56;;;;;;;3.58;3.38;;;;;;;;;;4986166;28;20639;-48
2021/05/25 00:22:22;;;;;;;3.80;3.50;;;;;;;;;;4987329;28;20211;-48
2021/05/25 00:24:47;;;;;;;3.53;3.33;;;;;;;;;;4985954;28;20197;-47
2021/05/25 00:27:12;;;;;;;3.90;3.70;;;;;;;;;;4988093;28;20264;-48
2021/05/25 00:29:37;;;;;;;4.28;3.97;;;;;;;;;;4986974;28;20613;-47
2021/05/25 00:32:02;;;;;;;4.30;4.00;;;;;;;;;;4985426;28;20181;-47
2021/05/25 00:34:27;;;;;;;4.17;3.87;;;;;;;;;;4988801;28;20180;-48
2021/05/25 00:36:52;;;;;;;3.70;3.50;;;;;;;;;;4986374;28;20183;-49
2021/05/25 00:39:18;;;;;;;4.22;3.90;;;;;;;;;;4987178;28;20176;-48
2021/05/25 00:41:43;;;;;;;4.47;4.17;;;;;;;;;;4987689;28;20689;-48
2021/05/25 00:44:09;;;;;;;4.00;3.43;;;;;;;;;;4994735;28;20184;-47
2021/05/25 00:46:35;;;;;;;3.90;3.70;;;;;;;;;;4987713;28;20258;-46
2021/05/25 00:49:00;;;;;;;4.40;4.10;;;;;;;;;;4987404;28;20259;-47
2021/05/25 00:51:26;;;;;;;4.33;3.93;;;;;;;;;;4987864;28;20187;-47
2021/05/25 00:53:51;;;;;;;4.70;4.30;;;;;;;;;;4987929;28;20181;-48
2021/05/25 00:56:16;;;;;;;4.03;3.72;;;;;;;;;;4987794;28;20253;-47
2021/05/25 00:58:42;;;;;;;4.50;4.13;;;;;;;;;;4990064;28;20181;-47
2021/05/25 01:01:07;;;;;;;3.80;3.50;;;;;;;;;;4986897;28;20198;-49
2021/05/25 01:03:33;;;;;;;4.03;3.72;;;;;;;;;;4987660;28;20192;-45
2021/05/25 01:05:58;;;;;;;4.60;4.30;;;;;;;;;;4988239;28;20324;-46
2021/05/25 01:08:24;;;;;;;5.07;4.68;;;;;;;;;;4985612;28;20615;-47
2021/05/25 01:10:53;;;;;;;4.70;4.40;;;;;;;;;;4987191;28;20238;-47
2021/05/25 01:13:22;;;;;;;4.90;4.50;;;;;;;;;;4984567;28;20185;-47
2021/05/25 01:15:48;;;;;;;4.43;4.13;;;;;;;;;;4983789;28;20690;-47
2021/05/25 01:18:14;;;;;;;5.07;4.70;;;;;;;;;;4987790;28;20703;-47
2021/05/25 01:20:39;;;;;;;5.73;5.33;;;;;;;;;;4987418;28;20275;-47
2021/05/25 01:23:07;;;;;;;5.53;5.13;;;;;;;;;;4987260;28;20195;-47
2021/05/25 01:25:32;;;;;;;5.73;5.23;;;;;;;;;;4986356;28;20218;-47
2021/05/25 01:28:02;;;;;;;5.88;5.47;;;;;;;;;;4987333;28;21164;-48
2021/05/25 01:30:29;;;;;;;6.37;5.97;;;;;;;;;;4991021;28;20230;-48
2021/05/25 01:32:55;;;;;;;6.03;5.63;;;;;;;;;;4990683;28;20607;-47
2021/05/25 01:35:20;;;;;;;6.37;5.87;;;;;;;;;;4991456;28;20617;-48
2021/05/25 01:37:46;;;;;;;6.70;6.20;;;;;;;;;;4988717;28;20308;-48
2021/05/25 01:40:12;;;;;;;6.33;5.93;;;;;;;;;;4989587;28;20202;-47
2021/05/25 01:42:37;;;;;;;6.03;5.53;;;;;;;;;;4986945;28;20179;-48
2021/05/25 01:45:04;;;;;;;7.10;6.60;;;;;;;;;;5001914;28;20214;-48
2021/05/25 01:47:29;;;;;;;7.07;6.57;;;;;;;;;;4991293;28;20175;-47
2021/05/25 01:50:10;;;;;;;7.10;6.60;;;;;;;;;;4991259;28;20931;-46
2021/05/25 01:52:36;;;;;;;6.90;6.40;;;;;;;;;;4980487;28;20186;-47
2021/05/25 01:55:01;;;;;;;7.23;6.80;;;;;;;;;;4990909;28;20613;-46
2021/05/25 01:57:26;;;;;;;7.22;6.63;;;;;;;;;;4988789;28;20210;-47
2021/05/25 01:59:51;;;;;;;7.68;7.18;;;;;;;;;;4995807;28;20194;-48
2021/05/25 02:02:16;;;;;;;6.70;6.30;;;;;;;;;;4990840;28;20223;-47
2021/05/25 02:04:41;;;;;;;6.93;6.35;;;;;;;;;;4993890;28;20212;-47
2021/05/25 02:07:08;;;;;;;7.07;6.68;;;;;;;;;;4988450;28;20189;-47
2021/05/25 02:09:36;;;;;;;6.33;5.93;;;;;;;;;;4990242;28;20182;-47
2021/05/25 02:12:01;;;;;;;6.63;6.10;;;;;;;;;;4990359;28;20612;-47
2021/05/25 02:14:26;;;;;;;6.68;6.22;;;;;;;;;;4989848;28;20606;-47
2021/05/25 02:16:51;;;;;;;6.78;6.38;;;;;;;;;;4990280;28;20182;-47
2021/05/25 02:19:16;;;;;;;6.10;5.70;;;;;;;;;;4988088;28;20199;-48
2021/05/25 02:21:41;;;;;;;6.97;6.38;;;;;;;;;;4983482;28;20186;-48
2021/05/25 02:24:07;;;;;;;6.40;5.90;;;;;;;;;;4988179;28;20534;-47
2021/05/25 02:26:32;;;;;;;5.87;5.47;;;;;;;;;;4987447;28;20295;-48
2021/05/25 02:28:57;;;;;;;8.27;6.45;;;;;;;;;;4994030;28;20191;-47
2021/05/25 02:31:22;;;;;;;6.60;6.20;;;;;;;;;;4989960;28;20297;-48
2021/05/25 02:33:47;;;;;;;5.50;5.10;;;;;;;;;;4989830;28;20186;-46
2021/05/25 02:36:13;;;;;;;6.65;6.20;;;;;;;;;;4988032;28;20929;-48
2021/05/25 02:38:39;;;;;;;6.03;5.43;;;;;;;;;;4991949;28;20262;-48
2021/05/25 02:41:04;;;;;;;4.73;3.73;;;;;;;;;;4989684;28;20278;-48
2021/05/25 02:43:30;;;;;;;4.10;3.45;;;;;;;;;;4990523;28;21226;-47
2021/05/25 02:45:55;;;;;;;3.73;3.53;;;;;;;;;;4988834;28;20706;-47
2021/05/25 02:48:21;;;;;;;3.70;3.40;;;;;;;;;;4990075;28;20587;-48
2021/05/25 02:50:47;;;;;;;2.53;2.43;;;;;;;;;;4989558;28;20180;-48
2021/05/25 02:53:13;;;;;;;2.60;2.40;;;;;;;;;;4989611;28;20625;-48
2021/05/25 02:55:39;;;;;;;2.20;2.10;;;;;;;;;;4989327;28;20228;-47
2021/05/25 02:58:05;;;;;;;2.50;2.30;;;;;;;;;;4984899;28;20603;-48
2021/05/25 03:00:41;;;;;;;1.87;1.77;;;;;;;;;;4994642;28;20640;-47
2021/05/25 03:03:07;;;;;;;2.70;1.80;;;;;;;;;;4987970;28;20190;-46
2021/05/25 03:05:32;;;;;;;2.07;1.97;;;;;;;;;;4988467;28;20645;-47
2021/05/25 03:07:58;;;;;;;2.20;2.07;;;;;;;;;;4988813;28;20174;-46
2021/05/25 03:10:25;;;;;;;2.60;2.40;;;;;;;;;;4989393;28;20588;-47
2021/05/25 03:12:50;;;;;;;2.17;1.97;;;;;;;;;;4987198;28;20601;-47
2021/05/25 03:15:17;;;;;;;3.27;3.07;;;;;;;;;;4992652;28;20665;-47
2021/05/25 03:17:43;;;;;;;2.17;2.07;;;;;;;;;;4988515;28;20179;-48
2021/05/25 03:20:09;;;;;;;2.50;2.30;;;;;;;;;;4998786;28;20611;-48
2021/05/25 03:22:34;;;;;;;1.90;1.80;;;;;;;;;;4992292;28;20204;-48
2021/05/25 03:24:59;;;;;;;2.20;2.10;;;;;;;;;;4988482;28;20646;-47
2021/05/25 03:27:25;;;;;;;1.98;1.88;;;;;;;;;;4988781;28;20211;-48
2021/05/25 03:29:50;;;;;;;2.13;1.93;;;;;;;;;;4988790;28;20719;-47
2021/05/25 03:32:16;;;;;;;2.60;2.17;;;;;;;;;;4986295;28;20182;-46
2021/05/25 03:34:41;;;;;;;3.23;2.13;;;;;;;;;;4985553;28;20191;-46
2021/05/25 03:37:06;;;;;;;2.25;2.15;;;;;;;;;;4988281;28;20182;-46
2021/05/25 03:39:31;;;;;;;2.00;1.90;;;;;;;;;;4988329;28;20191;-48
2021/05/25 03:41:59;;;;;;;1.95;1.85;;;;;;;;;;4988074;28;20643;-47
2021/05/25 03:44:24;;;;;;;2.50;2.20;;;;;;;;;;4986048;28;20183;-47
2021/05/25 03:46:49;;;;;;;2.03;1.93;;;;;;;;;;4986567;28;20586;-48
2021/05/25 03:49:15;;;;;;;3.08;2.88;;;;;;;;;;4982575;28;20185;-47
2021/05/25 03:51:40;;;;;;;2.70;2.45;;;;;;;;;;4985969;28;20185;-48
2021/05/25 03:54:11;;;;;;;2.30;2.10;;;;;;;;;;4989032;28;20597;-48
2021/05/25 03:56:49;;;;;;;2.63;2.43;;;;;;;;;;4986930;28;20225;-47
2021/05/25 03:59:14;;;;;;;2.30;2.10;;;;;;;;;;4986763;28;20618;-46
2021/05/25 04:01:39;;;;;;;2.13;1.97;;;;;;;;;;4985864;28;20702;-47
2021/05/25 04:04:04;;;;;;;2.70;2.60;;;;;;;;;;4988008;28;20587;-47
2021/05/25 04:06:29;;;;;;;2.67;2.20;;;;;;;;;;4987353;28;20201;-48
2021/05/25 04:08:55;;;;;;;2.40;2.20;;;;;;;;;;4989334;28;20178;-47
2021/05/25 04:11:20;;;;;;;3.03;2.83;;;;;;;;;;4996022;28;20174;-47
2021/05/25 04:13:45;;;;;;;2.23;2.10;;;;;;;;;;4987469;28;20646;-47
2021/05/25 04:16:12;;;;;;;2.03;1.93;;;;;;;;;;4986407;28;20242;-47
2021/05/25 04:18:38;;;;;;;2.30;2.10;;;;;;;;;;4986465;28;20272;-47
2021/05/25 04:21:03;;;;;;;1.97;1.87;;;;;;;;;;4982348;28;20713;-46
2021/05/25 04:23:28;;;;;;;2.70;1.90;;;;;;;;;;4985115;28;20501;-46
2021/05/25 04:25:53;;;;;;;2.50;2.30;;;;;;;;;;4983610;28;20240;-48
2021/05/25 04:28:19;;;;;;;3.47;2.00;;;;;;;;;;4985988;28;20205;-46
2021/05/25 04:30:44;;;;;;;3.20;2.20;;;;;;;;;;4988225;28;20228;-48
2021/05/25 04:33:09;;;;;;;2.60;2.50;;;;;;;;;;4987377;28;20641;-47
2021/05/25 04:35:34;;;;;;;2.13;2.03;;;;;;;;;;4986138;28;20237;-47
2021/05/25 04:38:00;;;;;;;2.30;2.20;;;;;;;;;;4978834;28;20190;-48
2021/05/25 04:40:26;;;;;;;2.63;2.43;;;;;;;;;;4979565;28;21540;-46
2021/05/25 04:42:51;;;;;;;2.77;2.57;;;;;;;;;;4984184;28;20232;-47
2021/05/25 04:45:17;;;;;;;2.57;2.37;;;;;;;;;;4984183;28;20230;-48
2021/05/25 04:47:42;;;;;;;2.50;2.30;;;;;;;;;;4984375;28;20198;-47
2021/05/25 04:50:09;;;;;;;3.20;2.47;;;;;;;;;;4982637;28;20181;-48
2021/05/25 04:52:34;;;;;;;2.83;2.63;;;;;;;;;;4987529;28;20204;-47
2021/05/25 04:55:01;;;;;;;3.17;2.87;;;;;;;;;;4984560;28;20610;-47
2021/05/25 04:57:26;;;;;;;2.67;2.57;;;;;;;;;;4984915;28;20264;-49
2021/05/25 04:59:52;;;;;;;3.90;3.07;;;;;;;;;;4980776;28;20711;-48
2021/05/25 05:02:17;;;;;;;2.70;2.50;;;;;;;;;;4983994;28;20185;-48
2021/05/25 05:04:43;;;;;;;2.70;2.50;;;;;;;;;;4983251;28;20827;-49
2021/05/25 05:07:08;;;;;;;2.57;2.37;;;;;;;;;;4987053;28;20170;-48
2021/05/25 05:09:34;;;;;;;3.03;2.83;;;;;;;;;;4987065;28;20635;-48
2021/05/25 05:11:59;;;;;;;3.40;3.10;;;;;;;;;;4983645;28;20426;-48
2021/05/25 05:14:24;;;;;;;3.13;2.93;;;;;;;;;;4984206;28;20164;-47
2021/05/25 05:16:49;;;;;;;3.75;3.40;;;;;;;;;;4982922;28;20853;-47
2021/05/25 05:19:15;;;;;;;2.72;2.58;;;;;;;;;;4982237;28;20230;-47
2021/05/25 05:21:40;;;;;;;2.95;2.75;;;;;;;;;;4986167;28;20182;-46
2021/05/25 05:24:05;;;;;;;2.17;2.00;;;;;;;;;;4986273;28;20654;-46
2021/05/25 05:26:30;;;;;;;2.50;2.20;;;;;;;;;;4985560;28;20209;-46
2021/05/25 05:28:58;;;;;;;2.40;2.20;;;;;;;;;;4987084;28;20217;-47
2021/05/25 05:31:23;;;;;;;1.90;1.80;;;;;;;;;;4985054;28;20697;-47
2021/05/25 05:33:49;;;;;;;1.60;1.50;;;;;;;;;;4986199;28;20641;-47
2021/05/25 05:36:16;;;;;;;5.55;1.70;;;;;;;;;;4985846;28;20599;-47
2021/05/25 05:38:42;;;;;;;1.80;1.70;;;;;;;;;;4998239;28;20173;-46
2021/05/25 05:41:07;;;;;;;1.43;1.27;;;;;;;;;;4986129;28;21086;-46
2021/05/25 05:43:33;;;;;;;2.03;1.20;;;;;;;;;;4986073;28;20693;-48
2021/05/25 05:45:59;;;;;;;1.67;1.57;;;;;;;;;;4985939;28;20217;-46
2021/05/25 05:48:24;;;;;;;1.63;1.53;;;;;;;;;;4981334;28;20205;-48
2021/05/25 05:50:49;;;;;;;1.90;1.20;;;;;;;;;;4984298;28;21006;-47
2021/05/25 05:53:15;;;;;;;3.00;1.42;;;;;;;;;;4983579;28;20261;-47
2021/05/25 05:55:40;;;;;;;1.30;1.20;;;;;;;;;;4986649;28;20193;-46
2021/05/25 05:58:06;;;;;;;3.25;1.10;;;;;;;;;;4985822;28;20187;-46
2021/05/25 06:00:32;;;;;;;1.37;1.27;;;;;;;;;;4977068;28;20681;-46
2021/05/25 06:02:57;;;;;;;1.27;1.20;;;;;;;;;;4985897;28;20596;-46
2021/05/25 06:05:22;;;;;;;0.90;0.90;;;;;;;;;;4980424;28;20263;-47
2021/05/25 06:07:47;;;;;;;1.30;1.20;;;;;;;;;;4980674;28;20754;-46
2021/05/25 06:10:12;;;;;;;1.33;1.10;;;;;;;;;;4986489;28;20572;-46
2021/05/25 06:12:38;;;;;;;1.20;1.10;;;;;;;;;;4986130;28;20175;-47
2021/05/25 06:15:03;;;;;;;1.13;1.10;;;;;;;;;;4986774;28;20188;-47
2021/05/25 06:17:28;;;;;;;2.60;1.20;;;;;;;;;;4988073;28;20543;-47
2021/05/25 06:19:54;;;;;;;2.00;1.37;;;;;;;;;;4988173;28;20193;-48
2021/05/25 06:22:22;;;;;;;1.40;0.90;;;;;;;;;;4989282;28;20177;-48
2021/05/25 06:24:47;;;;;;;2.03;1.10;;;;;;;;;;4989441;28;20191;-48
2021/05/25 06:27:12;;;;;;;1.00;1.00;;;;;;;;;;4989794;28;20606;-47
2021/05/25 06:29:37;;;;;;;1.37;1.27;;;;;;;;;;4989400;28;20703;-47
2021/05/25 06:32:02;;;;;;;1.43;1.30;;;;;;;;;;4990831;28;20184;-47
2021/05/25 06:34:28;;;;;;;1.77;1.00;;;;;;;;;;4989953;28;20263;-47
2021/05/25 06:36:53;;;;;;;1.67;1.20;;;;;;;;;;4989551;28;20210;-47
2021/05/25 06:39:19;;;;;;;2.40;1.20;;;;;;;;;;4988765;28;20176;-46
2021/05/25 06:41:44;;;;;;;1.88;1.10;;;;;;;;;;4988306;28;20223;-47
2021/05/25 06:44:09;;;;;;;1.20;1.10;;;;;;;;;;4989633;28;20208;-47
2021/05/25 06:46:34;;;;;;;1.42;1.20;;;;;;;;;;4986661;28;20202;-48
2021/05/25 06:48:59;;;;;;;1.80;1.15;;;;;;;;;;4986767;28;20187;-48
2021/05/25 06:51:26;;;;;;;1.20;1.00;;;;;;;;;;4988591;28;20187;-48
2021/05/25 06:53:51;;;;;;;1.33;1.17;;;;;;;;;;4991873;28;20176;-47
2021/05/25 06:56:16;;;;;;;1.60;1.20;;;;;;;;;;4988542;28;20933;-48
2021/05/25 06:58:41;;;;;;;1.17;1.07;;;;;;;;;;4989483;28;20180;-48
2021/05/25 07:01:06;;;;;;;1.20;1.10;;;;;;;;;;4988999;28;20195;-48
2021/05/25 07:03:31;;;;;;;1.43;1.10;;;;;;;;;;4989810;28;20177;-49
2021/05/25 07:05:57;;;;;;;1.00;1.00;;;;;;;;;;4987192;28;20200;-49
2021/05/25 07:08:22;;;;;;;1.17;1.10;;;;;;;;;;4997613;28;20190;-47
2021/05/25 07:10:47;;;;;;;1.40;1.20;;;;;;;;;;5006475;28;20215;-47
2021/05/25 07:13:13;;;;;;;1.50;1.00;;;;;;;;;;5008267;28;20179;-48
2021/05/25 07:15:38;;;;;;;1.10;1.00;;;;;;;;;;5006308;28;20184;-48
2021/05/25 07:18:03;;;;;;;1.30;1.20;;;;;;;;;;5007877;28;20194;-47
2021/05/25 07:20:28;;;;;;;1.17;1.10;;;;;;;;;;5008015;28;20595;-47
2021/05/25 07:22:54;;;;;;;1.53;1.20;;;;;;;;;;5001625;28;20656;-48
2021/05/25 07:25:20;;;;;;;2.60;1.20;;;;;;;;;;4986690;28;20210;-47
2021/05/25 07:27:45;;;;;;;1.80;0.80;;;;;;;;;;4986633;28;20224;-49
2021/05/25 07:30:11;;;;;;;1.30;1.20;;;;;;;;;;4988320;28;21323;-46
2021/05/25 07:32:37;;;;;;;1.60;1.20;;;;;;;;;;4988575;28;20178;-47
2021/05/25 07:35:02;;;;;;;1.43;1.00;;;;;;;;;;4988563;28;20193;-47
2021/05/25 07:37:27;;;;;;;1.20;1.10;;;;;;;;;;4988472;28;20191;-48
2021/05/25 07:39:52;;;;;;;1.10;1.00;;;;;;;;;;5005978;28;20262;-48
2021/05/25 07:42:18;;;;;;;1.70;1.23;;;;;;;;;;5007560;28;20226;-49
2021/05/25 07:44:43;;;;;;;1.20;1.10;;;;;;;;;;5007752;28;20394;-47
2021/05/25 07:47:08;;;;;;;2.20;1.33;;;;;;;;;;5006195;28;20185;-48
2021/05/25 07:49:34;;;;;;;1.10;1.00;;;;;;;;;;5007392;28;20249;-47
2021/05/25 07:52:00;;;;;;;1.53;1.33;;;;;;;;;;5007274;28;20180;-48
2021/05/25 07:54:25;;;;;;;1.53;1.07;;;;;;;;;;4987638;28;20612;-47
2021/05/25 07:56:50;;;;;;;1.60;1.20;;;;;;;;;;4987734;28;20180;-47
2021/05/25 07:59:15;;;;;;;2.33;1.30;;;;;;;;;;4987471;28;20581;-47
2021/05/25 08:01:42;;;;;;;1.83;1.30;;;;;;;;;;4987513;28;20179;-48
2021/05/25 08:04:07;;;;;;;2.07;1.20;;;;;;;;;;4988081;28;20650;-47
2021/05/25 08:06:34;;;;;;;1.20;1.10;;;;;;;;;;4984931;28;20702;-47
2021/05/25 08:08:59;;;;;;;3.33;1.10;;;;;;;;;;4985685;28;20173;-48
2021/05/25 08:11:25;;;;;;;1.05;1.00;;;;;;;;;;4987105;28;20597;-48
2021/05/25 08:13:50;;;;;;;1.40;1.23;;;;;;;;;;4986703;28;20266;-48
2021/05/25 08:16:17;;;;;;;1.13;1.13;;;;;;;;;;4987536;28;20212;-47
2021/05/25 08:18:55;;;;;;;1.20;1.10;;;;;;;;;;4987593;28;20607;-47
2021/05/25 08:21:20;;;;;;;1.30;1.10;;;;;;;;;;4987073;28;21070;-47
2021/05/25 08:23:45;;;;;;;1.13;0.90;;;;;;;;;;5000025;28;21213;-47
2021/05/25 08:26:11;;;;;;;1.30;1.20;;;;;;;;;;5004703;28;20230;-48
2021/05/25 08:28:36;;;;;;;1.10;1.00;;;;;;;;;;5006198;28;20190;-47
2021/05/25 08:31:02;;;;;;;1.97;1.20;;;;;;;;;;5006202;28;20628;-48
2021/05/25 08:33:27;;;;;;;1.33;1.23;;;;;;;;;;5004929;28;20173;-48
2021/05/25 08:35:53;;;;;;;1.05;1.05;;;;;;;;;;4994930;28;20187;-47
2021/05/25 08:38:22;;;;;;;1.20;1.07;;;;;;;;;;4986191;28;20594;-47
2021/05/25 08:40:48;;;;;;;1.50;1.10;;;;;;;;;;4985183;28;20199;-48
2021/05/25 08:43:13;;;;;;;1.60;1.03;;;;;;;;;;4987018;28;20670;-48
2021/05/25 08:45:38;;;;;;;1.93;1.27;;;;;;;;;;4986875;28;21274;-47
2021/05/25 08:48:04;;;;;;;1.90;1.33;;;;;;;;;;4986079;28;20334;-48
2021/05/25 08:50:29;;;;;;;1.50;0.90;;;;;;;;;;4986783;28;20174;-49
2021/05/25 08:52:59;;;;;;;1.23;1.13;;;;;;;;;;4985841;28;20188;-49
2021/05/25 08:55:24;;;;;;;1.07;1.07;;;;;;;;;;4984506;28;20664;-48
2021/05/25 08:57:49;;;;;;;1.53;1.17;;;;;;;;;;4986527;28;20585;-47
2021/05/25 09:00:15;;;;;;;1.30;1.20;;;;;;;;;;4986371;28;20185;-47
2021/05/25 09:02:40;;;;;;;1.37;1.03;;;;;;;;;;4986326;28;20186;-47
2021/05/25 09:05:05;;;;;;;1.43;1.17;;;;;;;;;;4985097;28;20349;-48
2021/05/25 09:07:44;;;;;;;1.73;1.17;;;;;;;;;;4986251;28;20178;-48
2021/05/25 09:10:23;;;;;;;1.33;1.10;;;;;;;;;;4986424;28;20173;-48
2021/05/25 09:12:50;;;;;;;1.70;1.30;;;;;;;;;;4984634;28;20587;-48
2021/05/25 09:15:16;;;;;;;2.20;1.53;;;;;;;;;;4986246;28;20589;-48
2021/05/25 09:17:42;;;;;;;0.87;0.87;;;;;;;;;;4987326;28;20620;-48
2021/05/25 09:20:09;;;;;;;1.00;1.00;;;;;;;;;;4986598;28;20605;-48
2021/05/25 09:22:39;;;;;;;1.20;1.07;;;;;;;;;;4986096;28;20251;-48
2021/05/25 09:25:09;;;;;;;1.13;1.00;;;;;;;;;;4986527;28;21357;-47
2021/05/25 09:27:37;;;;;;;3.60;1.50;;;;;;;;;;4986378;28;20877;-47
2021/05/25 09:30:11;;;;;;;1.10;1.00;;;;;;;;;;4985663;28;20702;-47
2021/05/25 09:32:38;;;;;;;1.20;1.10;;;;;;;;;;4987096;28;20565;-47
2021/05/25 09:35:06;;;;;;;1.10;1.00;;;;;;;;;;4986368;28;20594;-47
2021/05/25 09:37:39;;;;;;;1.37;0.90;;;;;;;;;;4989064;28;21161;-48
2021/05/25 09:40:04;;;;;;;3.20;1.10;;;;;;;;;;5006031;28;20598;-47
2021/05/25 09:42:29;;;;;;;1.10;1.00;;;;;;;;;;5006779;28;20639;-47
2021/05/25 09:45:05;;;;;;;1.47;1.00;;;;;;;;;;5006140;28;20203;-46
2021/05/25 09:47:33;;;;;;;2.93;1.27;;;;;;;;;;5005969;28;20644;-48
2021/05/25 09:49:59;;;;;;;2.20;1.20;;;;;;;;;;5005427;28;20611;-46
2021/05/25 09:52:24;;;;;;;1.07;0.97;;;;;;;;;;5008518;28;20569;-48
2021/05/25 09:55:02;;;;;;;0.95;0.95;;;;;;;;;;4989272;28;20221;-47
2021/05/25 09:57:38;;;;;;;2.30;0.90;;;;;;;;;;4991338;28;20174;-48
2021/05/25 10:00:21;;;;;;;1.57;0.90;;;;;;;;;;4991230;28;21130;-47
2021/05/25 10:02:46;;;;;;;1.30;1.00;;;;;;;;;;4969871;28;20586;-47
2021/05/25 10:05:13;;;;;;;1.00;1.00;;;;;;;;;;4970927;28;21500;-49
2021/05/25 10:07:38;;;;;;;1.33;1.00;;;;;;;;;;4976555;28;20201;-48
2021/05/25 10:10:05;;;;;;;1.23;1.13;;;;;;;;;;5010041;28;21151;-48
2021/05/25 10:12:30;;;;;;;2.40;1.20;;;;;;;;;;5010542;28;20199;-51
2021/05/25 10:14:56;;;;;;;1.60;0.90;;;;;;;;;;5010023;28;20603;-47
2021/05/25 10:20:02;;;;;;;2.03;1.03;;;;;;;;;;4989567;28;20598;-47
2021/05/25 10:22:27;;;;;;;1.40;0.87;;;;;;;;;;4991883;28;20622;-47
2021/05/25 10:24:54;;;;;;;0.90;0.90;;;;;;;;;;5007117;28;20902;-47
2021/05/25 10:27:19;;;;;;;2.87;2.07;;;;;;;;;;5009338;28;20586;-48
2021/05/25 10:29:44;;;;;;;1.83;1.73;;;;;;;;;;5009201;28;20725;-46
2021/05/25 10:32:19;;;;;;;5.73;4.67;;;;;;;;;;5004933;28;20192;-47
2021/05/25 10:34:44;;;;;;;2.60;2.40;;;;;;;;;;4989559;28;20172;-47
2021/05/25 10:37:13;;;;;;;5.73;4.10;;;;;;;;;;4989325;28;20676;-48
2021/05/25 10:39:40;;;;;;;2.40;1.00;;;;;;;;;;4973443;28;20172;-46
2021/05/25 10:42:20;;;;;;;1.90;1.80;;;;;;;;;;4989198;28;21010;-48
2021/05/25 10:44:46;;;;;;;2.50;2.27;;;;;;;;;;4989010;28;20677;-48
2021/05/25 10:47:15;;;;;;;1.30;1.10;;;;;;;;;;4988818;28;20592;-47
2021/05/25 10:49:57;;;;;;;1.20;1.10;;;;;;;;;;4992555;28;20708;-48
2021/05/25 10:52:22;;;;;;;2.10;2.00;;;;;;;;;;4989695;28;20611;-47
2021/05/25 10:54:52;;;;;;;1.63;1.40;;;;;;;;;;5006276;28;20613;-46
2021/05/25 10:57:34;;;;;;;6.70;6.30;;;;;;;;;;5007074;28;20177;-48
2021/05/25 10:59:59;;;;;;;5.17;4.87;;;;;;;;;;4993196;28;20604;-45
2021/05/25 11:02:45;;;;;;;4.78;4.47;;;;;;;;;;4986518;28;20672;-48
2021/05/25 11:05:29;;;;;;;6.37;5.97;;;;;;;;;;4984758;28;20270;-47
2021/05/25 11:07:55;;;;;;;4.10;3.80;;;;;;;;;;4990835;28;20611;-47
2021/05/25 11:10:26;;;;;;;1.53;1.47;;;;;;;;;;5004672;28;20629;-45
2021/05/25 11:13:11;;;;;;;1.00;1.00;;;;;;;;;;5004489;28;20484;-47
2021/05/25 11:15:56;;;;;;;2.67;1.00;;;;;;;;;;4983683;28;21091;-48
2021/05/25 11:18:25;;;;;;;1.20;0.83;;;;;;;;;;4985622;28;20643;-47
2021/05/25 11:21:13;;;;;;;0.60;0.60;;;;;;;;;;4986395;28;20584;-49
2021/05/25 11:23:50;;;;;;;0.70;0.70;;;;;;;;;;4996792;28;20617;-47
2021/05/25 11:26:34;;;;;;;0.97;0.80;;;;;;;;;;5002913;28;20676;-49
2021/05/25 11:29:19;;;;;;;1.63;0.90;;;;;;;;;;4970837;28;21408;-48
2021/05/25 11:31:44;;;;;;;0.87;0.87;;;;;;;;;;4995796;28;20871;-47
2021/05/25 11:34:09;;;;;;;0.97;0.83;;;;;;;;;;4985844;28;20716;-49
2021/05/25 11:36:35;;;;;;;0.80;0.80;;;;;;;;;;4984016;28;20187;-46
2021/05/25 11:39:01;;;;;;;0.80;0.80;;;;;;;;;;4987654;28;20908;-46
2021/05/25 11:41:26;;;;;;;0.70;0.70;;;;;;;;;;4985598;28;20172;-47
2021/05/25 11:44:00;;;;;;;1.73;0.93;;;;;;;;;;4985460;28;20984;-47
2021/05/25 11:46:37;;;;;;;0.87;0.70;;;;;;;;;;4985488;28;20219;-47
2021/05/25 11:49:03;;;;;;;1.10;1.00;;;;;;;;;;4992854;28;21397;-47
2021/05/25 11:51:28;;;;;;;1.37;0.80;;;;;;;;;;4982062;28;20608;-48
2021/05/25 11:53:53;;;;;;;1.10;0.90;;;;;;;;;;4991881;28;20609;-47
2021/05/25 11:56:18;;;;;;;0.90;0.80;;;;;;;;;;4985209;28;20185;-47
2021/05/25 11:58:54;;;;;;;1.42;0.98;;;;;;;;;;4985089;28;20247;-47
2021/05/25 12:01:19;;;;;;;0.90;0.90;;;;;;;;;;4985423;28;20184;-47
2021/05/25 12:03:46;;;;;;;0.63;0.63;;;;;;;;;;4984611;28;20604;-49
2021/05/25 12:06:14;;;;;;;1.37;0.70;;;;;;;;;;4985397;28;20212;-47
2021/05/25 12:08:39;;;;;;;1.17;0.80;;;;;;;;;;4988278;28;20585;-48
2021/05/25 12:11:04;;;;;;;0.70;0.70;;;;;;;;;;4982875;28;20596;-48
2021/05/25 12:13:30;;;;;;;2.47;0.90;;;;;;;;;;4984850;28;20192;-48
2021/05/25 12:15:55;;;;;;;1.47;0.80;;;;;;;;;;4980622;28;20686;-48
2021/05/25 12:18:24;;;;;;;0.63;0.60;;;;;;;;;;4982048;28;20181;-47
2021/05/25 12:20:50;;;;;;;0.97;0.63;;;;;;;;;;4983758;28;20196;-48
2021/05/25 12:23:17;;;;;;;3.97;0.90;;;;;;;;;;4983364;28;20656;-48
2021/05/25 12:25:47;;;;;;;2.00;0.87;;;;;;;;;;4983518;28;20800;-47
2021/05/25 12:28:14;;;;;;;1.20;1.10;;;;;;;;;;4983885;28;20628;-46
2021/05/25 12:30:43;;;;;;;0.80;0.80;;;;;;;;;;4984204;28;20812;-46
2021/05/25 12:33:14;;;;;;;1.77;1.00;;;;;;;;;;4985668;28;20596;-47
2021/05/25 12:35:39;;;;;;;1.00;0.90;;;;;;;;;;4984557;28;20636;-46
2021/05/25 12:38:06;;;;;;;0.88;0.70;;;;;;;;;;4983909;28;20710;-46
2021/05/25 12:40:32;;;;;;;0.90;0.90;;;;;;;;;;4984042;28;20296;-47
2021/05/25 12:42:57;;;;;;;0.70;0.70;;;;;;;;;;4983203;28;21134;-48
2021/05/25 12:45:26;;;;;;;2.03;0.60;;;;;;;;;;4985916;28;20204;-48
2021/05/25 12:47:52;;;;;;;9.07;1.27;;;;;;;;;;5002399;28;20177;-47
2021/05/25 12:50:32;;;;;;;0.70;0.60;;;;;;;;;;5003562;28;20585;-48
2021/05/25 12:53:05;;;;;;;0.80;0.80;;;;;;;;;;4999086;28;20980;-48
2021/05/25 12:55:31;;;;;;;0.60;0.57;;;;;;;;;;5003636;28;20818;-48
2021/05/25 12:57:56;;;;;;;0.50;0.43;;;;;;;;;;4995397;28;20705;-48
2021/05/25 13:00:28;;;;;;;1.20;0.70;;;;;;;;;;5001708;28;20658;-48
2021/05/25 13:02:54;;;;;;;0.73;0.73;;;;;;;;;;4984035;28;20647;-47
2021/05/25 13:05:25;;;;;;;0.60;0.60;;;;;;;;;;4983160;28;20689;-48
2021/05/25 13:08:00;;;;;;;0.63;0.63;;;;;;;;;;4985988;28;21412;-47
2021/05/25 13:10:28;;;;;;;0.60;0.60;;;;;;;;;;4983751;28;20613;-48
2021/05/25 13:12:54;;;;;;;0.70;0.70;;;;;;;;;;4982407;28;20720;-49
2021/05/25 13:15:19;;;;;;;0.60;0.60;;;;;;;;;;4984065;28;20595;-49
2021/05/25 13:17:51;;;;;;;0.60;0.60;;;;;;;;;;4986447;28;20608;-49
2021/05/25 13:20:21;;;;;;;0.90;0.70;;;;;;;;;;4983054;28;20185;-49
2021/05/25 13:22:46;;;;;;;1.17;0.73;;;;;;;;;;4990450;28;20602;-46
2021/05/25 13:25:13;;;;;;;0.80;0.80;;;;;;;;;;4994071;28;20650;-47
2021/05/25 13:27:38;;;;;;;0.80;0.80;;;;;;;;;;4988689;28;20266;-46
2021/05/25 13:30:05;;;;;;;0.80;0.80;;;;;;;;;;4989046;28;20752;-46
2021/05/25 13:32:31;;;;;;;1.13;0.70;;;;;;;;;;4990066;28;20330;-48
2021/05/25 13:35:00;;;;;;;1.80;0.60;;;;;;;;;;4988929;28;20661;-47
2021/05/25 13:37:26;;;;;;;0.70;0.70;;;;;;;;;;4987546;28;20674;-47
2021/05/25 13:39:54;;;;;;;0.90;0.90;;;;;;;;;;4989674;28;20719;-48
2021/05/25 13:42:20;;;;;;;0.70;0.70;;;;;;;;;;4989218;28;20170;-47
2021/05/25 13:44:45;;;;;;;1.27;0.80;;;;;;;;;;4988938;28;20951;-48
2021/05/25 13:47:10;;;;;;;0.80;0.80;;;;;;;;;;4986968;28;20282;-48
2021/05/25 13:49:35;;;;;;;0.67;0.63;;;;;;;;;;4987509;28;20169;-47
2021/05/25 13:52:00;;;;;;;1.17;0.73;;;;;;;;;;4989375;28;20304;-49
2021/05/25 13:54:26;;;;;;;0.80;0.80;;;;;;;;;;4989405;28;20251;-47
2021/05/25 13:56:55;;;;;;;1.80;0.77;;;;;;;;;;4988360;28;20254;-47
2021/05/25 13:59:30;;;;;;;0.70;0.70;;;;;;;;;;4982629;28;20272;-48
2021/05/25 14:01:55;;;;;;;0.70;0.70;;;;;;;;;;4988249;28;20605;-48
2021/05/25 14:04:20;;;;;;;0.75;0.60;;;;;;;;;;4989146;28;20623;-47
2021/05/25 14:06:46;;;;;;;0.83;0.70;;;;;;;;;;4983707;28;20197;-47
2021/05/25 14:09:27;;;;;;;0.90;0.77;;;;;;;;;;4979920;28;20181;-47
2021/05/25 14:11:52;;;;;;;0.70;0.70;;;;;;;;;;4976063;28;20193;-46
2021/05/25 14:14:17;;;;;;;1.17;0.60;;;;;;;;;;4979568;28;20605;-46
2021/05/25 14:16:42;;;;;;;0.60;0.60;;;;;;;;;;4984403;28;20609;-47
2021/05/25 14:19:08;;;;;;;1.05;0.80;;;;;;;;;;4975075;28;20631;-49
2021/05/25 14:21:34;;;;;;;0.87;0.70;;;;;;;;;;4981123;28;20198;-48
2021/05/25 14:24:00;;;;;;;0.53;0.53;;;;;;;;;;4976799;28;20684;-48
2021/05/25 14:26:25;;;;;;;1.03;0.70;;;;;;;;;;4985194;28;20201;-48
2021/05/25 14:28:52;;;;;;;1.03;0.60;;;;;;;;;;4989216;28;20639;-47
2021/05/25 14:31:17;;;;;;;0.90;0.90;;;;;;;;;;4987862;28;20450;-49
2021/05/25 14:33:42;;;;;;;1.90;0.80;;;;;;;;;;4988133;28;20594;-47
2021/05/25 14:36:07;;;;;;;0.85;0.85;;;;;;;;;;4982685;28;20185;-47
2021/05/25 14:38:33;;;;;;;0.50;0.50;;;;;;;;;;4987719;28;20178;-46
2021/05/25 14:40:58;;;;;;;1.20;0.80;;;;;;;;;;4988836;28;20972;-46
2021/05/25 14:43:23;;;;;;;0.60;0.60;;;;;;;;;;4989944;28;21190;-46